sensor_id;sensor_type;location;lat;lon;timestamp;pressure;altitude;pressure_sealevel;temperature;humidity
53719;BME280;39616;48.872;9.390;2023-09-07T00:02:26;98643.56;;;13.59;100.00
53719;BME280;39616;48.872;9.390;2023-09-07T00:04:57;98644.84;;;13.62;100.00
53719;BME280;39616;48.872;9.390;2023-09-07T00:07:27;98644.00;;;13.52;100.00
53719;BME280;39616;48.872;9.390;2023-09-07T00:09:58;98649.25;;;13.49;100.00
53719;BME280;39616;48.872;9.390;2023-09-07T00:12:28;98647.13;;;13.46;100.00
53719;BME280;39616;48.872;9.390;2023-09-07T00:14:58;98652.91;;;13.44;100.00
53719;BME280;39616;48.872;9.390;2023-09-07T00:17:29;98653.81;;;13.40;100.00
53719;BME280;39616;48.872;9.390;2023-09-07T00:19:59;98645.63;;;13.40;100.00
53719;BME280;39616;48.872;9.390;2023-09-07T00:22:29;98639.28;;;13.44;100.00
53719;BME280;39616;48.872;9.390;2023-09-07T00:25:01;98649.06;;;13.45;100.00
53719;BME280;39616;48.872;9.390;2023-09-07T00:27:35;98650.66;;;13.46;100.00
53719;BME280;39616;48.872;9.390;2023-09-07T00:30:05;98642.50;;;13.46;100.00
53719;BME280;39616;48.872;9.390;2023-09-07T00:32:37;98645.72;;;13.48;100.00
53719;BME280;39616;48.872;9.390;2023-09-07T00:35:08;98650.19;;;13.44;100.00
53719;BME280;39616;48.872;9.390;2023-09-07T00:37:38;98650.47;;;13.43;100.00
53719;BME280;39616;48.872;9.390;2023-09-07T00:40:09;98650.78;;;13.41;100.00
53719;BME280;39616;48.872;9.390;2023-09-07T00:42:39;98651.09;;;13.40;100.00
53719;BME280;39616;48.872;9.390;2023-09-07T00:45:09;98649.28;;;13.35;100.00
53719;BME280;39616;48.872;9.390;2023-09-07T00:47:40;98649.69;;;13.28;100.00
53719;BME280;39616;48.872;9.390;2023-09-07T00:50:11;98653.63;;;13.22;100.00
53719;BME280;39616;48.872;9.390;2023-09-07T00:52:45;98651.59;;;13.14;100.00
53719;BME280;39616;48.872;9.390;2023-09-07T00:55:16;98650.59;;;13.10;100.00
53719;BME280;39616;48.872;9.390;2023-09-07T00:57:47;98653.44;;;13.05;100.00
53719;BME280;39616;48.872;9.390;2023-09-07T01:00:17;98647.69;;;13.06;100.00
53719;BME280;39616;48.872;9.390;2023-09-07T01:02:47;98657.16;;;13.09;100.00
53719;BME280;39616;48.872;9.390;2023-09-07T01:05:20;98655.25;;;13.10;100.00
53719;BME280;39616;48.872;9.390;2023-09-07T01:07:55;98650.81;;;13.14;100.00
53719;BME280;39616;48.872;9.390;2023-09-07T01:10:27;98651.00;;;13.17;100.00
53719;BME280;39616;48.872;9.390;2023-09-07T01:12:58;98646.16;;;13.14;100.00
53719;BME280;39616;48.872;9.390;2023-09-07T01:15:28;98637.50;;;13.12;100.00
53719;BME280;39616;48.872;9.390;2023-09-07T01:17:58;98652.25;;;13.11;100.00
53719;BME280;39616;48.872;9.390;2023-09-07T01:20:31;98640.53;;;13.11;100.00
53719;BME280;39616;48.872;9.390;2023-09-07T01:23:03;98648.81;;;13.05;100.00
53719;BME280;39616;48.872;9.390;2023-09-07T01:25:34;98653.06;;;12.98;100.00
53719;BME280;39616;48.872;9.390;2023-09-07T01:28:04;98650.44;;;12.93;100.00
53719;BME280;39616;48.872;9.390;2023-09-07T01:30:35;98649.25;;;12.85;100.00
53719;BME280;39616;48.872;9.390;2023-09-07T01:33:07;98651.25;;;12.79;100.00
53719;BME280;39616;48.872;9.390;2023-09-07T01:35:39;98641.28;;;12.75;100.00
53719;BME280;39616;48.872;9.390;2023-09-07T01:38:10;98641.16;;;12.66;100.00
53719;BME280;39616;48.872;9.390;2023-09-07T01:40:41;98641.78;;;12.63;100.00
53719;BME280;39616;48.872;9.390;2023-09-07T01:43:11;98644.50;;;12.63;100.00
53719;BME280;39616;48.872;9.390;2023-09-07T01:45:41;98640.66;;;12.64;100.00
53719;BME280;39616;48.872;9.390;2023-09-07T01:48:14;98640.97;;;12.63;100.00
53719;BME280;39616;48.872;9.390;2023-09-07T01:50:44;98642.19;;;12.70;100.00
53719;BME280;39616;48.872;9.390;2023-09-07T01:53:14;98647.44;;;12.67;100.00
53719;BME280;39616;48.872;9.390;2023-09-07T01:55:45;98645.09;;;12.60;100.00
53719;BME280;39616;48.872;9.390;2023-09-07T01:58:15;98648.09;;;12.58;100.00
53719;BME280;39616;48.872;9.390;2023-09-07T02:00:46;98651.63;;;12.59;100.00
53719;BME280;39616;48.872;9.390;2023-09-07T02:03:16;98643.19;;;12.61;100.00
53719;BME280;39616;48.872;9.390;2023-09-07T02:05:46;98645.78;;;12.66;100.00
53719;BME280;39616;48.872;9.390;2023-09-07T02:08:17;98644.00;;;12.61;100.00
53719;BME280;39616;48.872;9.390;2023-09-07T02:10:47;98647.31;;;12.58;100.00
53719;BME280;39616;48.872;9.390;2023-09-07T02:13:18;98637.66;;;12.52;100.00
53719;BME280;39616;48.872;9.390;2023-09-07T02:15:48;98646.41;;;12.49;100.00
53719;BME280;39616;48.872;9.390;2023-09-07T02:18:18;98639.75;;;12.41;100.00
53719;BME280;39616;48.872;9.390;2023-09-07T02:20:50;98641.63;;;12.41;100.00
53719;BME280;39616;48.872;9.390;2023-09-07T02:23:20;98649.31;;;12.39;100.00
53719;BME280;39616;48.872;9.390;2023-09-07T02:25:51;98647.41;;;12.39;100.00
53719;BME280;39616;48.872;9.390;2023-09-07T02:28:21;98646.06;;;12.37;100.00
53719;BME280;39616;48.872;9.390;2023-09-07T02:30:52;98642.88;;;12.35;100.00
53719;BME280;39616;48.872;9.390;2023-09-07T02:33:22;98647.78;;;12.32;100.00
53719;BME280;39616;48.872;9.390;2023-09-07T02:35:53;98647.78;;;12.32;100.00
53719;BME280;39616;48.872;9.390;2023-09-07T02:38:23;98647.09;;;12.27;100.00
53719;BME280;39616;48.872;9.390;2023-09-07T02:40:55;98653.91;;;12.24;100.00
53719;BME280;39616;48.872;9.390;2023-09-07T02:43:26;98651.50;;;12.23;100.00
53719;BME280;39616;48.872;9.390;2023-09-07T02:45:56;98649.38;;;12.20;100.00
53719;BME280;39616;48.872;9.390;2023-09-07T02:48:26;98647.78;;;12.19;100.00
53719;BME280;39616;48.872;9.390;2023-09-07T02:50:57;98653.50;;;12.17;100.00
53719;BME280;39616;48.872;9.390;2023-09-07T02:53:29;98646.16;;;12.18;100.00
53719;BME280;39616;48.872;9.390;2023-09-07T02:55:59;98650.28;;;12.15;100.00
53719;BME280;39616;48.872;9.390;2023-09-07T02:58:32;98647.34;;;12.12;100.00
53719;BME280;39616;48.872;9.390;2023-09-07T03:01:06;98643.38;;;12.04;100.00
53719;BME280;39616;48.872;9.390;2023-09-07T03:03:38;98639.06;;;12.03;100.00
53719;BME280;39616;48.872;9.390;2023-09-07T03:06:12;98640.75;;;11.99;100.00
53719;BME280;39616;48.872;9.390;2023-09-07T03:08:43;98640.56;;;11.95;100.00
53719;BME280;39616;48.872;9.390;2023-09-07T03:11:13;98638.63;;;11.96;100.00
53719;BME280;39616;48.872;9.390;2023-09-07T03:13:44;98633.94;;;12.01;100.00
53719;BME280;39616;48.872;9.390;2023-09-07T03:16:14;98629.69;;;11.95;100.00
53719;BME280;39616;48.872;9.390;2023-09-07T03:18:45;98633.13;;;12.01;100.00
53719;BME280;39616;48.872;9.390;2023-09-07T03:21:15;98633.19;;;11.96;100.00
53719;BME280;39616;48.872;9.390;2023-09-07T03:23:45;98628.28;;;11.98;100.00
53719;BME280;39616;48.872;9.390;2023-09-07T03:26:16;98629.41;;;11.97;100.00
53719;BME280;39616;48.872;9.390;2023-09-07T03:28:46;98623.88;;;12.02;100.00
53719;BME280;39616;48.872;9.390;2023-09-07T03:31:16;98623.97;;;11.97;100.00
53719;BME280;39616;48.872;9.390;2023-09-07T03:33:46;98627.69;;;12.01;100.00
53719;BME280;39616;48.872;9.390;2023-09-07T03:36:17;98634.53;;;11.98;100.00
53719;BME280;39616;48.872;9.390;2023-09-07T03:38:47;98631.28;;;11.96;100.00
53719;BME280;39616;48.872;9.390;2023-09-07T03:41:17;98630.28;;;11.92;100.00
53719;BME280;39616;48.872;9.390;2023-09-07T03:43:48;98623.03;;;11.88;100.00
53719;BME280;39616;48.872;9.390;2023-09-07T03:46:18;98624.13;;;11.87;100.00
53719;BME280;39616;48.872;9.390;2023-09-07T03:48:48;98621.91;;;11.89;100.00
53719;BME280;39616;48.872;9.390;2023-09-07T03:51:19;98629.47;;;11.92;100.00
53719;BME280;39616;48.872;9.390;2023-09-07T03:53:49;98625.63;;;11.93;100.00
53719;BME280;39616;48.872;9.390;2023-09-07T03:56:19;98629.47;;;11.92;100.00
53719;BME280;39616;48.872;9.390;2023-09-07T03:58:49;98629.41;;;11.97;100.00
53719;BME280;39616;48.872;9.390;2023-09-07T04:01:20;98630.00;;;11.94;100.00
53719;BME280;39616;48.872;9.390;2023-09-07T04:03:50;98638.22;;;11.89;100.00
53719;BME280;39616;48.872;9.390;2023-09-07T04:06:20;98629.84;;;11.85;100.00
53719;BME280;39616;48.872;9.390;2023-09-07T04:08:50;98623.31;;;11.86;100.00
53719;BME280;39616;48.872;9.390;2023-09-07T04:11:21;98614.41;;;11.80;100.00
53719;BME280;39616;48.872;9.390;2023-09-07T04:13:51;98618.81;;;11.76;100.00
53719;BME280;39616;48.872;9.390;2023-09-07T04:16:21;98619.63;;;11.77;100.00
53719;BME280;39616;48.872;9.390;2023-09-07T04:18:52;98617.50;;;11.74;100.00
53719;BME280;39616;48.872;9.390;2023-09-07T04:21:22;98614.19;;;11.77;100.00
53719;BME280;39616;48.872;9.390;2023-09-07T04:23:53;98616.31;;;11.80;100.00
53719;BME280;39616;48.872;9.390;2023-09-07T04:26:23;98619.56;;;11.82;100.00
53719;BME280;39616;48.872;9.390;2023-09-07T04:28:53;98622.00;;;11.83;100.00
53719;BME280;39616;48.872;9.390;2023-09-07T04:31:24;98615.47;;;11.84;100.00
53719;BME280;39616;48.872;9.390;2023-09-07T04:33:57;98615.88;;;11.92;100.00
53719;BME280;39616;48.872;9.390;2023-09-07T04:36:27;98620.19;;;11.93;100.00
53719;BME280;39616;48.872;9.390;2023-09-07T04:38:57;98626.75;;;11.92;100.00
53719;BME280;39616;48.872;9.390;2023-09-07T04:41:28;98625.34;;;11.94;100.00
53719;BME280;39616;48.872;9.390;2023-09-07T04:43:58;98624.47;;;11.99;100.00
53719;BME280;39616;48.872;9.390;2023-09-07T04:46:28;98622.84;;;11.98;100.00
53719;BME280;39616;48.872;9.390;2023-09-07T04:48:59;98624.25;;;11.95;100.00
53719;BME280;39616;48.872;9.390;2023-09-07T04:51:29;98618.75;;;12.00;100.00
53719;BME280;39616;48.872;9.390;2023-09-07T04:54:00;98624.66;;;12.02;100.00
53719;BME280;39616;48.872;9.390;2023-09-07T04:56:30;98622.97;;;12.06;100.00
53719;BME280;39616;48.872;9.390;2023-09-07T04:59:00;98622.47;;;12.04;100.00
53719;BME280;39616;48.872;9.390;2023-09-07T05:01:30;98629.78;;;12.04;100.00
53719;BME280;39616;48.872;9.390;2023-09-07T05:04:02;98625.19;;;12.04;100.00
53719;BME280;39616;48.872;9.390;2023-09-07T05:06:34;98631.63;;;12.08;100.00
53719;BME280;39616;48.872;9.390;2023-09-07T05:09:07;98637.34;;;12.07;100.00
53719;BME280;39616;48.872;9.390;2023-09-07T05:11:37;98646.09;;;12.04;100.00
53719;BME280;39616;48.872;9.390;2023-09-07T05:14:07;98639.28;;;12.06;100.00
53719;BME280;39616;48.872;9.390;2023-09-07T05:16:38;98637.88;;;12.09;100.00
53719;BME280;39616;48.872;9.390;2023-09-07T05:19:08;98642.72;;;12.12;100.00
53719;BME280;39616;48.872;9.390;2023-09-07T05:21:38;98641.28;;;12.15;100.00
53719;BME280;39616;48.872;9.390;2023-09-07T05:24:09;98647.56;;;12.15;100.00
53719;BME280;39616;48.872;9.390;2023-09-07T05:26:39;98659.47;;;12.19;100.00
53719;BME280;39616;48.872;9.390;2023-09-07T05:29:11;98656.94;;;12.23;100.00
53719;BME280;39616;48.872;9.390;2023-09-07T05:31:41;98660.88;;;12.30;100.00
53719;BME280;39616;48.872;9.390;2023-09-07T05:34:12;98666.22;;;12.36;100.00
53719;BME280;39616;48.872;9.390;2023-09-07T05:36:42;98664.22;;;12.41;100.00
53719;BME280;39616;48.872;9.390;2023-09-07T05:39:12;98664.13;;;12.46;100.00
53719;BME280;39616;48.872;9.390;2023-09-07T05:41:42;98662.22;;;12.61;100.00
53719;BME280;39616;48.872;9.390;2023-09-07T05:44:13;98658.41;;;12.75;100.00
53719;BME280;39616;48.872;9.390;2023-09-07T05:46:43;98665.25;;;12.87;100.00
53719;BME280;39616;48.872;9.390;2023-09-07T05:49:13;98663.63;;;12.99;100.00
53719;BME280;39616;48.872;9.390;2023-09-07T05:51:44;98659.41;;;13.07;100.00
53719;BME280;39616;48.872;9.390;2023-09-07T05:54:14;98665.94;;;13.20;100.00
53719;BME280;39616;48.872;9.390;2023-09-07T05:56:44;98659.38;;;13.35;100.00
53719;BME280;39616;48.872;9.390;2023-09-07T05:59:15;98654.31;;;13.42;100.00
53719;BME280;39616;48.872;9.390;2023-09-07T06:01:45;98654.56;;;13.54;100.00
53719;BME280;39616;48.872;9.390;2023-09-07T06:04:15;98657.59;;;13.66;100.00
53719;BME280;39616;48.872;9.390;2023-09-07T06:06:46;98657.69;;;13.84;100.00
53719;BME280;39616;48.872;9.390;2023-09-07T06:09:17;98663.47;;;14.05;100.00
53719;BME280;39616;48.872;9.390;2023-09-07T06:11:47;98662.50;;;14.32;100.00
53719;BME280;39616;48.872;9.390;2023-09-07T06:14:17;98657.34;;;14.53;100.00
53719;BME280;39616;48.872;9.390;2023-09-07T06:16:47;98653.41;;;14.76;100.00
53719;BME280;39616;48.872;9.390;2023-09-07T06:19:18;98657.06;;;15.03;100.00
53719;BME280;39616;48.872;9.390;2023-09-07T06:21:48;98666.91;;;15.21;100.00
53719;BME280;39616;48.872;9.390;2023-09-07T06:24:19;98665.81;;;15.48;100.00
53719;BME280;39616;48.872;9.390;2023-09-07T06:26:50;98664.38;;;15.68;100.00
53719;BME280;39616;48.872;9.390;2023-09-07T06:29:20;98655.84;;;15.87;100.00
53719;BME280;39616;48.872;9.390;2023-09-07T06:31:50;98665.97;;;16.04;100.00
53719;BME280;39616;48.872;9.390;2023-09-07T06:34:22;98657.09;;;16.24;100.00
53719;BME280;39616;48.872;9.390;2023-09-07T06:36:52;98656.38;;;16.53;100.00
53719;BME280;39616;48.872;9.390;2023-09-07T06:39:22;98657.75;;;16.77;100.00
53719;BME280;39616;48.872;9.390;2023-09-07T06:41:53;98653.59;;;17.00;96.57
53719;BME280;39616;48.872;9.390;2023-09-07T06:44:23;98660.56;;;17.27;95.99
53719;BME280;39616;48.872;9.390;2023-09-07T06:46:53;98666.31;;;17.55;91.25
53719;BME280;39616;48.872;9.390;2023-09-07T06:49:50;98654.72;;;17.79;90.59
53719;BME280;39616;48.872;9.390;2023-09-07T06:52:20;98661.69;;;18.10;87.33
53719;BME280;39616;48.872;9.390;2023-09-07T06:54:53;98657.75;;;18.32;87.82
53719;BME280;39616;48.872;9.390;2023-09-07T06:57:24;98661.91;;;18.63;85.41
53719;BME280;39616;48.872;9.390;2023-09-07T06:59:59;98655.56;;;18.83;82.92
53719;BME280;39616;48.872;9.390;2023-09-07T07:02:32;98661.97;;;19.12;81.72
53719;BME280;39616;48.872;9.390;2023-09-07T07:05:03;98656.66;;;19.43;79.69
53719;BME280;39616;48.872;9.390;2023-09-07T07:07:36;98659.03;;;19.57;77.50
53719;BME280;39616;48.872;9.390;2023-09-07T07:10:07;98658.81;;;19.74;77.12
53719;BME280;39616;48.872;9.390;2023-09-07T07:12:38;98656.75;;;19.99;75.83
53719;BME280;39616;48.872;9.390;2023-09-07T07:15:10;98663.28;;;20.23;74.46
53719;BME280;39616;48.872;9.390;2023-09-07T07:17:41;98661.91;;;20.45;74.65
53719;BME280;39616;48.872;9.390;2023-09-07T07:20:19;98670.03;;;20.54;72.98
53719;BME280;39616;48.872;9.390;2023-09-07T07:22:50;98668.06;;;20.54;74.24
53719;BME280;39616;48.872;9.390;2023-09-07T07:25:20;98672.81;;;20.69;72.50
53719;BME280;39616;48.872;9.390;2023-09-07T07:27:53;98669.53;;;20.95;71.00
53719;BME280;39616;48.872;9.390;2023-09-07T07:30:27;98663.94;;;21.27;70.41
53719;BME280;39616;48.872;9.390;2023-09-07T07:32:57;98662.00;;;21.43;69.22
53719;BME280;39616;48.872;9.390;2023-09-07T07:35:28;98670.78;;;21.49;69.09
53719;BME280;39616;48.872;9.390;2023-09-07T07:38:02;98664.16;;;21.54;68.32
53719;BME280;39616;48.872;9.390;2023-09-07T07:40:37;98671.88;;;21.83;68.01
53719;BME280;39616;48.872;9.390;2023-09-07T07:43:07;98677.72;;;22.36;67.62
53719;BME280;39616;48.872;9.390;2023-09-07T07:45:42;98674.19;;;22.59;65.95
53719;BME280;39616;48.872;9.390;2023-09-07T07:48:12;98670.81;;;22.69;64.57
53719;BME280;39616;48.872;9.390;2023-09-07T07:50:42;98666.06;;;22.70;64.66
53719;BME280;39616;48.872;9.390;2023-09-07T07:53:13;98662.94;;;22.71;64.27
53719;BME280;39616;48.872;9.390;2023-09-07T07:55:44;98665.19;;;22.88;64.30
53719;BME280;39616;48.872;9.390;2023-09-07T07:58:15;98662.06;;;23.13;62.86
53719;BME280;39616;48.872;9.390;2023-09-07T08:00:45;98666.19;;;23.00;62.62
53719;BME280;39616;48.872;9.390;2023-09-07T08:03:17;98658.81;;;23.07;62.91
53719;BME280;39616;48.872;9.390;2023-09-07T08:05:48;98664.72;;;23.32;63.23
53719;BME280;39616;48.872;9.390;2023-09-07T08:08:18;98666.97;;;23.50;61.19
53719;BME280;39616;48.872;9.390;2023-09-07T08:10:48;98666.25;;;23.30;60.93
53719;BME280;39616;48.872;9.390;2023-09-07T08:13:19;98661.97;;;23.32;60.56
53719;BME280;39616;48.872;9.390;2023-09-07T08:15:50;98655.06;;;23.46;60.38
53719;BME280;39616;48.872;9.390;2023-09-07T08:18:20;98659.13;;;23.55;59.40
53719;BME280;39616;48.872;9.390;2023-09-07T08:20:50;98651.97;;;23.81;58.99
53719;BME280;39616;48.872;9.390;2023-09-07T08:23:21;98650.91;;;23.93;58.20
53719;BME280;39616;48.872;9.390;2023-09-07T08:25:53;98657.72;;;23.99;58.13
53719;BME280;39616;48.872;9.390;2023-09-07T08:28:24;98655.53;;;24.49;57.52
53719;BME280;39616;48.872;9.390;2023-09-07T08:30:55;98659.97;;;24.57;57.11
53719;BME280;39616;48.872;9.390;2023-09-07T08:33:32;98654.66;;;24.82;56.73
53719;BME280;39616;48.872;9.390;2023-09-07T08:36:10;98659.84;;;24.91;55.74
53719;BME280;39616;48.872;9.390;2023-09-07T08:38:40;98647.81;;;25.17;55.18
53719;BME280;39616;48.872;9.390;2023-09-07T08:41:11;98651.69;;;25.09;55.28
53719;BME280;39616;48.872;9.390;2023-09-07T08:43:46;98658.22;;;25.30;54.46
53719;BME280;39616;48.872;9.390;2023-09-07T08:46:19;98650.34;;;25.43;54.53
53719;BME280;39616;48.872;9.390;2023-09-07T08:48:54;98657.44;;;25.34;55.94
53719;BME280;39616;48.872;9.390;2023-09-07T08:51:25;98660.72;;;25.53;54.24
53719;BME280;39616;48.872;9.390;2023-09-07T08:53:58;98661.53;;;25.58;54.54
53719;BME280;39616;48.872;9.390;2023-09-07T08:56:29;98660.19;;;26.14;54.95
53719;BME280;39616;48.872;9.390;2023-09-07T08:58:59;98657.97;;;26.48;53.04
53719;BME280;39616;48.872;9.390;2023-09-07T09:01:30;98661.13;;;26.57;52.83
53719;BME280;39616;48.872;9.390;2023-09-07T09:04:01;98660.22;;;26.21;53.51
53719;BME280;39616;48.872;9.390;2023-09-07T09:06:32;98660.28;;;26.39;52.29
53719;BME280;39616;48.872;9.390;2023-09-07T09:09:02;98661.31;;;25.88;53.50
53719;BME280;39616;48.872;9.390;2023-09-07T09:11:35;98660.22;;;26.21;55.36
53719;BME280;39616;48.872;9.390;2023-09-07T09:14:05;98663.47;;;26.41;52.08
53719;BME280;39616;48.872;9.390;2023-09-07T09:16:36;98667.09;;;26.52;52.44
53719;BME280;39616;48.872;9.390;2023-09-07T09:19:06;98663.13;;;26.60;51.68
53719;BME280;39616;48.872;9.390;2023-09-07T09:21:39;98663.06;;;26.42;52.40
53719;BME280;39616;48.872;9.390;2023-09-07T09:24:10;98662.34;;;26.63;52.70
53719;BME280;39616;48.872;9.390;2023-09-07T09:26:40;98651.94;;;26.39;52.88
53719;BME280;39616;48.872;9.390;2023-09-07T09:29:10;98651.59;;;26.69;52.26
53719;BME280;39616;48.872;9.390;2023-09-07T09:31:41;98651.22;;;27.13;51.25
53719;BME280;39616;48.872;9.390;2023-09-07T09:34:13;98652.03;;;27.17;50.53
53719;BME280;39616;48.872;9.390;2023-09-07T09:36:43;98641.69;;;27.18;51.78
53719;BME280;39616;48.872;9.390;2023-09-07T09:39:24;98647.56;;;27.63;50.46
53719;BME280;39616;48.872;9.390;2023-09-07T09:41:54;98638.59;;;28.14;48.97
53719;BME280;39616;48.872;9.390;2023-09-07T09:44:28;98646.75;;;27.80;49.13
53719;BME280;39616;48.872;9.390;2023-09-07T09:46:59;98645.44;;;28.73;50.39
53719;BME280;39616;48.872;9.390;2023-09-07T09:49:29;98638.44;;;28.50;48.51
53719;BME280;39616;48.872;9.390;2023-09-07T09:52:00;98643.34;;;28.21;48.05
53719;BME280;39616;48.872;9.390;2023-09-07T09:54:33;98642.66;;;28.73;47.37
53719;BME280;39616;48.872;9.390;2023-09-07T09:57:05;98646.59;;;28.05;48.66
53719;BME280;39616;48.872;9.390;2023-09-07T09:59:35;98638.19;;;28.16;48.71
53719;BME280;39616;48.872;9.390;2023-09-07T10:02:06;98630.44;;;28.52;48.57
53719;BME280;39616;48.872;9.390;2023-09-07T10:04:37;98636.03;;;28.49;48.05
53719;BME280;39616;48.872;9.390;2023-09-07T10:07:07;98642.34;;;28.56;47.53
53719;BME280;39616;48.872;9.390;2023-09-07T10:09:38;98630.91;;;28.40;48.01
53719;BME280;39616;48.872;9.390;2023-09-07T10:12:11;98630.13;;;28.39;47.92
53719;BME280;39616;48.872;9.390;2023-09-07T10:14:42;98629.88;;;28.05;48.42
53719;BME280;39616;48.872;9.390;2023-09-07T10:17:22;98632.31;;;28.00;49.68
53719;BME280;39616;48.872;9.390;2023-09-07T10:20:03;98631.72;;;28.40;48.15
53719;BME280;39616;48.872;9.390;2023-09-07T10:22:35;98632.22;;;28.21;49.42
53719;BME280;39616;48.872;9.390;2023-09-07T10:25:06;98629.19;;;28.57;48.17
53719;BME280;39616;48.872;9.390;2023-09-07T10:27:42;98634.44;;;27.60;49.51
53719;BME280;39616;48.872;9.390;2023-09-07T10:30:12;98619.16;;;28.04;48.59
53719;BME280;39616;48.872;9.390;2023-09-07T10:32:43;98627.16;;;28.61;48.14
53719;BME280;39616;48.872;9.390;2023-09-07T10:35:15;98616.28;;;28.77;47.86
53719;BME280;39616;48.872;9.390;2023-09-07T10:37:46;98609.31;;;28.51;48.42
53719;BME280;39616;48.872;9.390;2023-09-07T10:40:21;98606.16;;;29.39;47.30
53719;BME280;39616;48.872;9.390;2023-09-07T10:43:01;98603.72;;;29.41;47.13
53719;BME280;39616;48.872;9.390;2023-09-07T10:45:31;98609.00;;;29.35;46.73
53719;BME280;39616;48.872;9.390;2023-09-07T10:48:02;98608.34;;;28.76;47.61
53719;BME280;39616;48.872;9.390;2023-09-07T10:50:43;98602.03;;;29.13;46.29
53719;BME280;39616;48.872;9.390;2023-09-07T10:53:14;98600.28;;;28.85;47.21
53719;BME280;39616;48.872;9.390;2023-09-07T10:55:44;98593.19;;;29.90;45.71
53719;BME280;39616;48.872;9.390;2023-09-07T10:58:32;98593.59;;;30.19;44.80
53719;BME280;39616;48.872;9.390;2023-09-07T11:01:03;98593.34;;;30.37;45.13
53719;BME280;39616;48.872;9.390;2023-09-07T11:03:33;98595.22;;;29.52;45.46
53719;BME280;39616;48.872;9.390;2023-09-07T11:06:09;98591.53;;;29.28;46.05
53719;BME280;39616;48.872;9.390;2023-09-07T11:08:40;98591.84;;;29.33;46.65
53719;BME280;39616;48.872;9.390;2023-09-07T11:11:12;98586.88;;;29.14;46.28
53719;BME280;39616;48.872;9.390;2023-09-07T11:13:43;98588.41;;;28.74;47.49
53719;BME280;39616;48.872;9.390;2023-09-07T11:16:13;98585.22;;;28.75;48.90
53719;BME280;39616;48.872;9.390;2023-09-07T11:18:45;98585.47;;;29.33;46.68
53719;BME280;39616;48.872;9.390;2023-09-07T11:21:16;98581.22;;;29.55;46.24
53719;BME280;39616;48.872;9.390;2023-09-07T11:23:46;98574.78;;;29.28;46.18
53719;BME280;39616;48.872;9.390;2023-09-07T11:26:17;98574.41;;;29.56;45.97
53719;BME280;39616;48.872;9.390;2023-09-07T11:28:48;98574.25;;;29.71;46.54
53719;BME280;39616;48.872;9.390;2023-09-07T11:31:19;98574.81;;;29.24;45.99
53719;BME280;39616;48.872;9.390;2023-09-07T11:33:51;98567.25;;;29.21;46.49
53719;BME280;39616;48.872;9.390;2023-09-07T11:36:21;98563.88;;;29.37;46.67
53719;BME280;39616;48.872;9.390;2023-09-07T11:38:54;98563.88;;;29.37;47.00
53719;BME280;39616;48.872;9.390;2023-09-07T11:41:24;98560.50;;;29.19;46.16
53719;BME280;39616;48.872;9.390;2023-09-07T11:43:55;98560.56;;;29.11;46.24
53719;BME280;39616;48.872;9.390;2023-09-07T11:46:25;98551.75;;;29.17;46.39
53719;BME280;39616;48.872;9.390;2023-09-07T11:48:56;98547.94;;;29.00;46.52
53719;BME280;39616;48.872;9.390;2023-09-07T11:51:26;98551.28;;;29.22;46.85
53719;BME280;39616;48.872;9.390;2023-09-07T11:53:56;98550.06;;;29.23;47.45
53719;BME280;39616;48.872;9.390;2023-09-07T11:56:27;98544.50;;;29.23;46.95
53719;BME280;39616;48.872;9.390;2023-09-07T11:58:57;98551.97;;;29.33;46.88
53719;BME280;39616;48.872;9.390;2023-09-07T12:01:27;98545.38;;;29.50;46.17
53719;BME280;39616;48.872;9.390;2023-09-07T12:03:58;98543.19;;;29.31;45.51
53719;BME280;39616;48.872;9.390;2023-09-07T12:06:28;98544.38;;;29.33;46.27
53719;BME280;39616;48.872;9.390;2023-09-07T12:09:00;98539.13;;;29.39;45.68
53719;BME280;39616;48.872;9.390;2023-09-07T12:11:31;98549.31;;;29.19;45.97
53719;BME280;39616;48.872;9.390;2023-09-07T12:14:01;98539.56;;;29.34;45.08
53719;BME280;39616;48.872;9.390;2023-09-07T12:16:32;98541.09;;;29.42;46.02
53719;BME280;39616;48.872;9.390;2023-09-07T12:19:02;98535.50;;;29.42;45.68
53719;BME280;39616;48.872;9.390;2023-09-07T12:21:32;98533.47;;;29.46;46.27
53719;BME280;39616;48.872;9.390;2023-09-07T12:24:03;98535.88;;;29.75;45.22
53719;BME280;39616;48.872;9.390;2023-09-07T12:26:33;98523.88;;;29.78;48.63
53719;BME280;39616;48.872;9.390;2023-09-07T12:29:04;98528.69;;;29.77;45.91
53719;BME280;39616;48.872;9.390;2023-09-07T12:31:34;98523.78;;;29.85;45.56
53719;BME280;39616;48.872;9.390;2023-09-07T12:34:05;98528.06;;;29.63;45.20
53719;BME280;39616;48.872;9.390;2023-09-07T12:36:35;98522.34;;;30.00;45.88
53719;BME280;39616;48.872;9.390;2023-09-07T12:39:05;98518.47;;;29.64;45.34
53719;BME280;39616;48.872;9.390;2023-09-07T12:41:36;98514.66;;;29.81;45.60
53719;BME280;39616;48.872;9.390;2023-09-07T12:44:06;98513.81;;;29.84;44.81
53719;BME280;39616;48.872;9.390;2023-09-07T12:46:36;98514.34;;;29.75;45.30
53719;BME280;39616;48.872;9.390;2023-09-07T12:49:07;98512.19;;;29.87;45.02
53719;BME280;39616;48.872;9.390;2023-09-07T12:51:37;98518.06;;;29.65;45.58
53719;BME280;39616;48.872;9.390;2023-09-07T12:54:08;98520.44;;;29.32;46.14
53719;BME280;39616;48.872;9.390;2023-09-07T12:56:38;98522.75;;;29.07;46.71
53719;BME280;39616;48.872;9.390;2023-09-07T12:59:08;98512.13;;;29.29;46.11
53719;BME280;39616;48.872;9.390;2023-09-07T13:01:39;98515.66;;;29.33;46.15
53719;BME280;39616;48.872;9.390;2023-09-07T13:04:09;98507.94;;;29.44;46.56
53719;BME280;39616;48.872;9.390;2023-09-07T13:06:41;98509.22;;;29.70;45.29
53719;BME280;39616;48.872;9.390;2023-09-07T13:09:12;98509.28;;;29.94;45.19
53719;BME280;39616;48.872;9.390;2023-09-07T13:11:42;98511.28;;;29.32;45.31
53719;BME280;39616;48.872;9.390;2023-09-07T13:14:12;98504.50;;;29.64;45.84
53719;BME280;39616;48.872;9.390;2023-09-07T13:16:43;98499.19;;;29.73;45.06